Time;durP1;ratioP1;P1;durP2;ratioP2;P2;SDS_P1;SDS_P2;PMS_P1;PMS_P2;Temp;Humidity;BMP_temperature;BMP_pressure;BME280_temperature;BME280_humidity;BME280_pressure;Samples;Min_cycle;Max_cycle;Signal;HPM_P1;HPM_P2
2021/12/14 00:02:25;;;;;;;15.95;9.68;;;;;;;7.02;75.81;101562.19;8517026;33;20148;-74
2021/12/14 00:07:29;;;;;;;27.85;11.50;;;;;;;6.93;76.00;101567.09;8518665;33;20431;-74
2021/12/14 00:12:39;;;;;;;17.92;10.23;;;;;;;6.98;75.43;101562.38;8541531;33;20180;-75
2021/12/14 00:17:46;;;;;;;20.35;11.55;;;;;;;6.93;75.92;101575.94;8540788;33;20276;-75
2021/12/14 00:28:19;;;;;;;20.98;10.98;;;;;;;6.93;75.79;101572.41;8520640;33;20138;-73
2021/12/14 00:33:33;;;;;;;21.25;11.80;;;;;;;6.82;75.51;101563.06;8518476;33;20426;-75
2021/12/14 00:38:37;;;;;;;22.60;11.15;;;;;;;6.90;75.99;101554.72;8519618;33;20520;-74
2021/12/14 00:43:43;;;;;;;19.38;10.68;;;;;;;6.91;75.05;101547.56;8518393;33;21008;-74
2021/12/14 00:48:50;;;;;;;16.58;9.27;;;;;;;6.94;74.61;101547.44;8512670;33;21345;-74
2021/12/14 00:53:53;;;;;;;20.38;9.27;;;;;;;6.92;74.54;101546.66;8535018;33;20455;-75
2021/12/14 00:58:58;;;;;;;17.48;9.10;;;;;;;6.81;74.75;101548.00;8535227;33;20942;-74
2021/12/14 01:04:06;;;;;;;17.13;9.65;;;;;;;6.89;74.52;101558.34;8517015;33;20257;-74
2021/12/14 01:09:09;;;;;;;17.65;10.48;;;;;;;6.78;74.47;101560.63;8540706;33;21898;-74
2021/12/14 01:14:23;;;;;;;18.83;11.07;;;;;;;6.79;74.51;101567.69;8515315;33;20500;-73
2021/12/14 01:19:29;;;;;;;16.77;10.43;;;;;;;6.84;74.32;101563.88;8515242;33;20825;-74
2021/12/14 01:25:00;;;;;;;18.05;10.10;;;;;;;6.79;74.16;101560.53;8540458;33;20406;-74
2021/12/14 01:30:07;;;;;;;18.27;10.48;;;;;;;6.84;74.34;101545.16;8524524;33;20267;-76
2021/12/14 01:35:13;;;;;;;15.60;8.90;;;;;;;6.90;74.28;101541.38;8538380;33;20422;-75
2021/12/14 01:40:45;;;;;;;13.75;8.75;;;;;;;6.90;74.50;101538.69;8563353;33;20190;-73
2021/12/14 01:45:44;;;;;;;13.57;8.75;;;;;;;6.90;74.81;101552.06;8563101;33;20479;-74
2021/12/14 01:50:53;;;;;;;14.48;9.35;;;;;;;6.87;75.06;101541.53;8540152;33;20316;-75
2021/12/14 01:56:29;;;;;;;16.00;9.35;;;;;;;6.82;75.00;101536.34;8542366;33;20951;-74
2021/12/14 02:01:42;;;;;;;15.32;9.18;;;;;;;6.64;76.20;101531.91;8543998;33;20430;-75
2021/12/14 02:07:00;;;;;;;13.60;9.45;;;;;;;6.77;76.11;101542.84;8580362;33;20415;-75
2021/12/14 02:12:11;;;;;;;11.23;8.45;;;;;;;6.79;76.05;101540.97;8544801;33;20171;-74
2021/12/14 02:17:21;;;;;;;13.38;8.40;;;;;;;6.80;75.92;101519.56;8543359;33;20989;-75
2021/12/14 02:22:27;;;;;;;14.88;9.38;;;;;;;6.76;75.91;101488.56;8538015;33;20191;-76
2021/12/14 02:27:36;;;;;;;13.75;8.57;;;;;;;6.74;76.31;101484.25;8525658;33;20422;-75
2021/12/14 02:32:40;;;;;;;12.60;8.23;;;;;;;6.70;75.98;101472.84;8550174;33;20478;-76
2021/12/14 02:37:51;;;;;;;14.10;8.68;;;;;;;6.72;75.78;101470.09;8522221;33;20155;-75
2021/12/14 02:42:54;;;;;;;17.58;10.13;;;;;;;6.67;76.05;101456.13;8521671;33;20243;-76
2021/12/14 02:47:57;;;;;;;11.25;8.20;;;;;;;6.68;76.14;101458.69;8523592;33;20496;-77
2021/12/14 02:53:02;;;;;;;13.98;7.90;;;;;;;6.64;75.84;101435.78;8546040;33;20452;-75
2021/12/14 02:58:08;;;;;;;11.00;7.82;;;;;;;6.66;75.84;101417.84;8545402;33;20451;-74
2021/12/14 03:03:12;;;;;;;13.40;7.95;;;;;;;6.62;75.49;101421.63;8546511;33;20625;-74
2021/12/14 03:08:21;;;;;;;11.95;7.65;;;;;;;6.66;75.54;101428.53;8522457;33;20282;-74
2021/12/14 03:13:30;;;;;;;11.10;7.13;;;;;;;6.59;75.57;101425.31;8521356;33;20433;-74
2021/12/14 03:18:37;;;;;;;11.48;7.95;;;;;;;6.45;75.56;101434.91;8545517;33;20183;-75
2021/12/14 03:23:45;;;;;;;10.95;6.95;;;;;;;6.54;75.33;101447.81;8514130;33;20214;-74
2021/12/14 03:28:52;;;;;;;10.43;6.43;;;;;;;6.32;75.08;101461.31;8465389;33;20412;-74
2021/12/14 03:34:00;;;;;;;11.45;6.85;;;;;;;6.45;75.34;101456.28;8478342;33;20413;-75
2021/12/14 03:39:13;;;;;;;9.65;6.55;;;;;;;6.25;75.71;101449.16;8467270;33;20763;-74
2021/12/14 03:44:23;;;;;;;9.50;6.55;;;;;;;6.35;75.48;101446.00;8470643;33;21181;-74
2021/12/14 03:49:31;;;;;;;10.77;7.35;;;;;;;6.38;75.31;101463.69;8479361;33;20157;-75
2021/12/14 03:54:36;;;;;;;11.20;7.03;;;;;;;6.38;75.45;101461.00;8468837;33;20428;-75
2021/12/14 03:59:41;;;;;;;13.48;7.75;;;;;;;6.29;75.68;101478.31;8462013;33;20141;-76
2021/12/14 04:04:52;;;;;;;11.98;7.78;;;;;;;6.33;75.92;101484.38;8544855;33;20183;-75
2021/12/14 04:09:57;;;;;;;11.70;7.68;;;;;;;6.18;76.55;101488.63;8519062;33;20152;-76
2021/12/14 04:15:01;;;;;;;14.75;8.38;;;;;;;6.44;75.66;101484.75;8518381;33;21588;-74
2021/12/14 04:20:13;;;;;;;11.32;7.40;;;;;;;6.32;75.90;101485.31;8518376;33;20463;-74
2021/12/14 04:25:23;;;;;;;12.60;8.25;;;;;;;6.35;76.11;101470.03;8543006;33;20420;-74
2021/12/14 04:30:28;;;;;;;12.80;7.82;;;;;;;6.36;75.92;101453.09;8543581;33;20147;-75
2021/12/14 04:35:37;;;;;;;12.10;7.60;;;;;;;6.35;75.87;101446.00;8488756;33;21981;-74
2021/12/14 04:56:49;;;;;;;12.25;7.18;;;;;;;6.35;75.96;101439.81;8551355;33;20438;-75
2021/12/14 05:01:58;;;;;;;11.32;7.13;;;;;;;6.29;76.01;101438.28;8468942;33;20164;-75
2021/12/14 05:12:49;;;;;;;12.88;7.63;;;;;;;6.17;77.07;101449.50;8458012;33;21748;-75
2021/12/14 05:17:57;;;;;;;13.13;7.32;;;;;;;5.92;77.64;101452.41;8461511;33;20817;-75
2021/12/14 05:23:03;;;;;;;11.38;7.30;;;;;;;5.88;78.01;101458.84;8499520;33;20459;-76
2021/12/14 05:28:13;;;;;;;12.02;7.28;;;;;;;5.89;78.39;101465.91;8518329;33;20205;-75
2021/12/14 05:33:23;;;;;;;12.00;7.28;;;;;;;6.03;77.95;101454.63;8546548;33;21289;-75
2021/12/14 05:38:43;;;;;;;9.93;7.45;;;;;;;6.18;77.18;101449.44;8524059;33;20913;-77
2021/12/14 05:44:11;;;;;;;13.38;7.53;;;;;;;6.17;77.17;101447.72;8547510;33;20156;-76
2021/12/14 05:49:24;;;;;;;11.82;7.47;;;;;;;6.23;76.97;101451.91;8524305;33;20415;-76
2021/12/14 05:54:31;;;;;;;14.45;8.60;;;;;;;6.20;76.49;101452.06;8523687;33;20966;-76
2021/12/14 05:59:37;;;;;;;12.82;7.60;;;;;;;6.13;77.60;101462.13;8522445;33;21749;-77
2021/12/14 06:04:45;;;;;;;10.60;7.63;;;;;;;6.32;77.28;101456.81;8524869;33;20464;-77
2021/12/14 06:09:52;;;;;;;16.95;9.18;;;;;;;6.25;77.08;101447.34;8523775;33;20236;-76
2021/12/14 06:15:25;;;;;;;15.98;8.80;;;;;;;6.20;77.67;101430.72;8524452;33;20463;-76
2021/12/14 06:20:29;;;;;;;12.52;8.13;;;;;;;6.05;78.22;101421.59;8522874;33;20483;-76
2021/12/14 06:25:36;;;;;;;15.25;8.57;;;;;;;6.11;77.81;101428.44;8518615;33;20186;-76
2021/12/14 06:30:43;;;;;;;14.60;9.80;;;;;;;5.81;79.36;101430.69;8517245;33;20180;-77
2021/12/14 06:35:53;;;;;;;19.65;10.35;;;;;;;5.95;78.58;101423.84;8513034;33;20733;-76
2021/12/14 06:41:08;;;;;;;14.90;8.57;;;;;;;5.87;79.34;101433.09;8514667;33;20689;-76
2021/12/14 06:46:19;;;;;;;19.05;10.70;;;;;;;5.81;80.09;101460.91;8518956;33;20462;-76
2021/12/14 06:51:26;;;;;;;19.88;11.75;;;;;;;5.70;80.52;101469.41;8520278;33;20414;-75
2021/12/14 06:56:38;;;;;;;19.35;10.90;;;;;;;6.20;78.90;101462.75;8517887;33;20971;-77
2021/12/14 07:02:13;;;;;;;21.92;12.77;;;;;;;6.04;79.11;101446.56;8511368;33;20417;-76
2021/12/14 07:07:34;;;;;;;23.40;13.40;;;;;;;5.91;79.93;101467.56;8512462;33;21099;-77
2021/12/14 07:12:56;;;;;;;21.00;12.32;;;;;;;5.96;80.36;101483.38;8512982;33;20225;-77
2021/12/14 07:18:04;;;;;;;31.27;15.63;;;;;;;6.20;79.58;101486.75;8539040;33;22485;-77
2021/12/14 07:23:22;;;;;;;29.38;16.65;;;;;;;5.87;80.98;101508.66;8544245;33;20214;-77
2021/12/14 07:28:31;;;;;;;30.67;16.35;;;;;;;6.33;79.88;101532.41;8550024;33;20262;-77
2021/12/14 07:33:36;;;;;;;28.27;15.38;;;;;;;6.08;79.25;101516.63;8554287;33;20640;-77
2021/12/14 07:38:43;;;;;;;22.45;13.27;;;;;;;6.12;80.09;101513.78;8591455;33;20331;-76
2021/12/14 07:43:54;;;;;;;28.10;15.55;;;;;;;6.02;80.39;101508.91;8594159;33;20405;-76
2021/12/14 07:49:04;;;;;;;30.70;15.80;;;;;;;5.92;80.93;101513.75;8601770;33;20888;-76
2021/12/14 07:54:11;;;;;;;29.55;15.95;;;;;;;6.11;80.73;101532.50;8578065;33;21577;-76
2021/12/14 07:59:24;;;;;;;27.90;14.85;;;;;;;5.97;81.09;101524.25;8593769;33;20155;-76
2021/12/14 08:04:34;;;;;;;29.07;17.33;;;;;;;5.97;81.06;101527.78;8594032;33;20896;-77
2021/12/14 08:09:49;;;;;;;39.38;16.15;;;;;;;5.76;81.94;101520.69;8584099;33;20193;-76
2021/12/14 08:15:05;;;;;;;32.22;17.30;;;;;;;5.98;81.77;101525.97;8610592;33;20443;-76
2021/12/14 08:20:13;;;;;;;35.33;19.60;;;;;;;5.88;82.44;101545.03;8601113;33;20166;-76
2021/12/14 08:25:32;;;;;;;33.10;16.88;;;;;;;5.84;82.60;101550.56;8603512;33;20410;-76
2021/12/14 08:30:40;;;;;;;36.95;17.88;;;;;;;5.91;82.30;101550.25;8577405;33;20495;-76
2021/12/14 08:35:44;;;;;;;38.75;17.10;;;;;;;5.80;82.79;101552.50;8603286;33;20155;-76
2021/12/14 08:40:52;;;;;;;35.38;17.00;;;;;;;5.84;82.47;101545.22;8599945;33;20418;-76
2021/12/14 08:46:02;;;;;;;32.20;15.60;;;;;;;5.82;82.86;101539.97;8597515;33;20907;-76
2021/12/14 08:51:13;;;;;;;33.63;16.42;;;;;;;6.01;81.79;101544.53;8596795;33;20479;-76
2021/12/14 08:56:18;;;;;;;36.53;17.75;;;;;;;6.10;81.66;101546.78;8569852;33;20941;-76
2021/12/14 09:01:27;;;;;;;21.65;11.73;;;;;;;6.08;81.37;101535.31;8595023;33;20582;-76
2021/12/14 09:06:37;;;;;;;34.72;15.50;;;;;;;5.87;81.98;101546.00;8573382;33;20410;-76
2021/12/14 09:11:48;;;;;;;27.17;14.20;;;;;;;6.03;81.75;101546.16;8600366;33;20144;-76
2021/12/14 09:16:57;;;;;;;31.33;15.50;;;;;;;5.92;82.33;101551.09;8602468;33;21058;-76
2021/12/14 09:22:06;;;;;;;32.75;16.23;;;;;;;6.10;81.61;101565.47;8600700;33;20147;-76
2021/12/14 09:27:15;;;;;;;33.22;16.95;;;;;;;6.32;81.04;101570.72;8595855;33;20155;-76
2021/12/14 09:32:25;;;;;;;34.85;16.80;;;;;;;6.12;81.76;101567.13;8569427;33;20534;-76
2021/12/14 09:37:31;;;;;;;33.53;16.90;;;;;;;5.98;82.88;101576.66;8604671;33;20207;-76
2021/12/14 09:42:36;;;;;;;34.22;16.20;;;;;;;6.05;82.31;101568.31;8604358;33;20447;-76
2021/12/14 09:47:39;;;;;;;33.47;15.95;;;;;;;6.30;81.71;101561.91;8605000;33;20182;-76
2021/12/14 09:52:47;;;;;;;31.85;15.52;;;;;;;6.16;81.78;101567.84;8605811;33;20412;-76
2021/12/14 09:57:55;;;;;;;37.60;18.73;;;;;;;6.43;81.70;101572.91;8606030;33;20246;-76
2021/12/14 10:03:02;;;;;;;41.90;20.00;;;;;;;6.50;81.11;101563.69;8606858;33;20454;-76
2021/12/14 10:08:15;;;;;;;36.45;19.52;;;;;;;6.56;80.91;101558.94;8604535;33;20461;-76
2021/12/14 10:13:19;;;;;;;39.28;19.75;;;;;;;6.34;81.78;101548.38;8602786;33;20426;-76
2021/12/14 10:18:28;;;;;;;38.17;18.35;;;;;;;6.22;81.83;101550.69;8607041;33;20152;-76
2021/12/14 10:23:34;;;;;;;34.58;16.35;;;;;;;6.43;81.42;101538.22;8605044;33;20201;-76
2021/12/14 10:28:40;;;;;;;36.83;18.58;;;;;;;6.51;80.81;101539.59;8603210;33;20580;-77
2021/12/14 10:33:45;;;;;;;39.50;19.63;;;;;;;6.62;80.31;101528.41;8606805;33;20415;-76
2021/12/14 10:39:18;;;;;;;35.78;17.77;;;;;;;6.51;80.53;101520.03;8606871;33;20453;-76
2021/12/14 10:44:22;;;;;;;36.08;18.10;;;;;;;6.67;80.35;101526.41;8577167;33;20566;-76
2021/12/14 10:49:27;;;;;;;31.80;15.43;;;;;;;6.71;79.69;101532.47;8596897;33;20411;-76
2021/12/14 10:54:34;;;;;;;33.67;15.63;;;;;;;6.76;79.79;101533.13;8569299;33;20676;-76
2021/12/14 10:59:40;;;;;;;36.17;18.08;;;;;;;6.90;79.63;101528.03;8594111;33;20408;-76
2021/12/14 11:04:53;;;;;;;37.42;18.02;;;;;;;7.01;78.78;101532.84;8598740;33;20450;-76
2021/12/14 11:10:11;;;;;;;37.38;18.70;;;;;;;6.86;79.04;101523.75;8598941;33;20492;-76
2021/12/14 11:15:19;;;;;;;36.25;17.92;;;;;;;6.85;79.00;101524.66;8540662;33;20507;-76
2021/12/14 11:20:26;;;;;;;39.25;18.90;;;;;;;6.69;80.00;101535.22;8536950;33;20187;-76
2021/12/14 11:25:44;;;;;;;37.95;17.60;;;;;;;6.79;79.98;101525.81;8533229;33;20237;-76
2021/12/14 11:30:52;;;;;;;36.13;17.55;;;;;;;7.20;78.55;101519.47;8534503;33;20571;-77
2021/12/14 11:36:12;;;;;;;31.52;15.55;;;;;;;7.08;78.92;101514.75;8540458;33;20422;-76
2021/12/14 11:41:35;;;;;;;34.67;18.08;;;;;;;7.28;78.11;101512.81;8544215;33;20430;-76
2021/12/14 11:46:59;;;;;;;33.75;16.48;;;;;;;7.40;77.60;101508.66;8544443;33;21384;-76
2021/12/14 11:52:04;;;;;;;32.95;16.05;;;;;;;7.25;78.36;101510.28;8543006;33;20723;-76
2021/12/14 11:57:09;;;;;;;26.30;13.63;;;;;;;7.11;78.35;101509.25;8551114;33;20148;-77
2021/12/14 12:02:13;;;;;;;30.77;15.32;;;;;;;7.26;78.23;101490.63;8552137;33;20436;-76
2021/12/14 12:12:41;;;;;;;30.30;15.68;;;;;;;7.23;78.95;101509.50;8577531;33;20167;-76
2021/12/14 12:17:50;;;;;;;33.22;16.38;;;;;;;7.11;78.80;101496.75;8599346;33;20411;-76
2021/12/14 12:22:57;;;;;;;33.45;16.42;;;;;;;7.76;77.19;101514.88;8597605;33;20440;-76
2021/12/14 12:28:06;;;;;;;28.77;15.45;;;;;;;7.59;76.88;101513.94;8573076;33;20458;-76
2021/12/14 12:33:25;;;;;;;33.85;17.80;;;;;;;7.23;78.47;101508.63;8596058;33;20669;-76
2021/12/14 12:38:38;;;;;;;35.30;16.75;;;;;;;7.18;78.69;101511.50;8569951;33;20227;-76
2021/12/14 12:43:51;;;;;;;31.88;15.93;;;;;;;7.31;78.54;101511.78;8594204;33;20439;-76
2021/12/14 12:49:05;;;;;;;33.33;17.38;;;;;;;6.68;81.06;101511.25;8593228;33;20150;-76
2021/12/14 12:54:22;;;;;;;39.30;19.25;;;;;;;7.00;79.87;101523.97;8568967;33;20186;-76
2021/12/14 12:59:43;;;;;;;31.17;15.43;;;;;;;6.71;80.50;101521.78;8594817;33;20492;-76
2021/12/14 13:04:53;;;;;;;32.95;16.38;;;;;;;7.03;80.16;101533.66;8595562;33;20859;-76
2021/12/14 13:10:02;;;;;;;34.20;15.93;;;;;;;7.17;79.61;101541.88;8596111;33;20189;-76
2021/12/14 13:15:33;;;;;;;33.20;14.45;;;;;;;7.35;78.49;101526.75;8535300;33;20620;-76
2021/12/14 13:20:36;;;;;;;28.75;13.82;;;;;;;7.12;78.82;101521.66;8538970;33;20512;-76
2021/12/14 13:25:43;;;;;;;38.35;18.05;;;;;;;7.17;79.11;101523.16;8539351;33;20562;-76
2021/12/14 13:30:55;;;;;;;32.05;14.70;;;;;;;6.79;80.51;101519.63;8548106;33;20631;-76
2021/12/14 13:35:58;;;;;;;32.22;15.68;;;;;;;7.32;79.17;101523.34;8561123;33;20461;-77
2021/12/14 13:41:07;;;;;;;33.08;16.33;;;;;;;7.45;78.00;101519.97;8558842;33;20467;-77
2021/12/14 13:46:11;;;;;;;29.63;15.50;;;;;;;7.37;77.83;101521.31;8550227;33;20166;-76
2021/12/14 13:51:18;;;;;;;31.75;16.60;;;;;;;7.15;79.46;101534.84;8545437;33;20442;-76
2021/12/14 13:56:25;;;;;;;31.15;16.10;;;;;;;7.27;79.21;101536.94;8542534;33;20179;-76
2021/12/14 14:01:34;;;;;;;32.05;16.60;;;;;;;7.01;80.02;101547.06;8541481;33;20188;-76
2021/12/14 14:06:38;;;;;;;39.03;18.63;;;;;;;6.92;80.63;101552.00;8540230;33;20407;-76
2021/12/14 14:11:45;;;;;;;33.30;16.48;;;;;;;7.00;80.19;101556.03;8561516;33;20147;-76
2021/12/14 14:16:54;;;;;;;43.10;20.58;;;;;;;7.19;79.54;101548.00;8597319;33;20430;-77
2021/12/14 14:22:04;;;;;;;42.40;21.00;;;;;;;7.08;80.07;101563.69;8603449;33;20414;-77
2021/12/14 14:27:35;;;;;;;44.63;21.83;;;;;;;7.09;80.32;101567.22;8612172;33;22202;-76
2021/12/14 14:33:00;;;;;;;47.70;20.85;;;;;;;7.04;80.53;101567.44;8600564;33;20641;-76
2021/12/14 14:38:30;;;;;;;44.45;22.05;;;;;;;6.95;81.27;101567.88;8603369;33;20509;-76
2021/12/14 14:43:57;;;;;;;49.13;22.55;;;;;;;6.99;81.07;101566.78;8605752;33;20439;-76
2021/12/14 14:49:02;;;;;;;44.92;20.85;;;;;;;6.97;81.10;101571.34;8602163;33;20479;-76
2021/12/14 14:54:44;;;;;;;48.55;23.00;;;;;;;7.12;80.68;101583.13;8603856;33;21109;-76
2021/12/14 15:00:40;;;;;;;44.00;21.27;;;;;;;7.14;80.87;101582.09;8600950;33;20158;-76
2021/12/14 15:05:51;;;;;;;53.47;25.58;;;;;;;6.91;81.88;101588.53;8575643;33;20458;-76
2021/12/14 15:11:01;;;;;;;52.97;22.10;;;;;;;6.64;83.16;101590.63;8592937;33;20147;-77
2021/12/14 15:16:15;;;;;;;54.65;23.80;;;;;;;6.86;82.60;101582.50;8567440;33;20561;-76
2021/12/14 15:21:39;;;;;;;49.13;23.30;;;;;;;6.80;83.23;101589.00;8565828;33;20399;-76
2021/12/14 15:26:42;;;;;;;56.88;25.42;;;;;;;6.80;83.36;101577.44;8589831;33;20419;-76
2021/12/14 15:32:22;;;;;;;61.15;28.33;;;;;;;6.90;83.41;101576.09;8591417;33;20927;-76
2021/12/14 15:37:42;;;;;;;59.55;26.25;;;;;;;6.90;83.04;101575.25;8593653;33;20151;-76
2021/12/14 15:43:11;;;;;;;57.03;25.48;;;;;;;6.78;83.60;101574.84;8591600;33;21246;-77
2021/12/14 15:48:18;;;;;;;62.50;26.03;;;;;;;6.69;84.47;101583.28;8565894;33;20981;-76
2021/12/14 15:53:27;;;;;;;63.63;26.70;;;;;;;6.72;84.21;101572.47;8592557;33;20497;-76
2021/12/14 15:58:33;;;;;;;60.58;27.33;;;;;;;6.73;84.41;101590.22;8593774;33;21595;-76
2021/12/14 16:03:37;;;;;;;58.22;26.20;;;;;;;6.77;84.48;101582.91;8598749;33;21813;-77
2021/12/14 16:08:44;;;;;;;59.63;26.45;;;;;;;6.73;84.43;101586.69;8597079;33;20423;-76
2021/12/14 16:19:12;;;;;;;59.75;28.35;;;;;;;6.52;85.55;101581.34;8598616;33;20154;-76
2021/12/14 16:24:17;;;;;;;56.40;25.25;;;;;;;6.59;85.26;101590.84;8588535;33;20546;-76
2021/12/14 16:29:30;;;;;;;59.72;26.15;;;;;;;6.58;85.86;101594.47;8597360;33;21090;-77
2021/12/14 16:34:36;;;;;;;62.70;27.38;;;;;;;6.69;85.53;101593.06;8594912;33;20136;-76
2021/12/14 16:39:43;;;;;;;61.42;27.25;;;;;;;6.68;85.76;101597.56;8591037;33;21457;-77
2021/12/14 16:44:50;;;;;;;61.75;26.90;;;;;;;6.72;85.33;101592.94;8594091;33;20143;-76
2021/12/14 16:49:59;;;;;;;63.25;25.65;;;;;;;6.76;85.44;101595.41;8593699;33;21046;-76
2021/12/14 16:55:10;;;;;;;65.35;29.00;;;;;;;6.79;85.47;101603.28;8600422;33;20148;-76
2021/12/14 17:00:19;;;;;;;57.22;25.52;;;;;;;6.74;85.71;101605.28;8590116;33;20933;-76
2021/12/14 17:05:36;;;;;;;61.92;26.40;;;;;;;6.67;86.18;101586.97;8601843;33;20197;-76
2021/12/14 17:10:43;;;;;;;69.22;28.38;;;;;;;6.49;86.82;101602.00;8573978;33;21049;-75
2021/12/14 17:15:50;;;;;;;64.00;29.35;;;;;;;6.70;86.40;101598.38;8575835;33;20419;-76
2021/12/14 17:20:56;;;;;;;58.65;21.67;;;;;;;6.52;86.40;101607.19;8607200;33;20237;-76
2021/12/14 17:26:05;;;;;;;72.88;28.95;;;;;;;6.63;86.61;101610.25;8598553;33;20556;-76
2021/12/14 17:31:12;;;;;;;70.37;29.30;;;;;;;6.80;85.58;101606.81;8559867;33;20422;-75
2021/12/14 17:36:19;;;;;;;64.88;28.67;;;;;;;6.74;85.81;101607.94;8559553;33;20195;-76
2021/12/14 17:41:30;;;;;;;69.38;28.52;;;;;;;6.68;86.21;101608.25;8558605;33;20240;-76
2021/12/14 17:46:33;;;;;;;63.95;26.05;;;;;;;6.37;87.94;101612.28;8556739;33;20201;-75
2021/12/14 17:51:36;;;;;;;55.53;26.02;;;;;;;6.47;88.40;101619.88;8551009;33;20568;-77
2021/12/14 17:56:41;;;;;;;57.08;24.38;;;;;;;6.40;88.36;101621.97;8553656;33;20409;-76
2021/12/14 18:01:54;;;;;;;65.18;27.08;;;;;;;6.40;88.84;101614.81;8539499;33;20179;-78
2021/12/14 18:06:57;;;;;;;55.88;23.33;;;;;;;6.17;89.39;101630.94;8566234;33;20351;-76
2021/12/14 18:12:08;;;;;;;59.03;24.55;;;;;;;6.52;88.87;101616.06;8561813;33;20411;-76
2021/12/14 18:17:21;;;;;;;55.28;25.38;;;;;;;6.51;88.45;101616.16;8544383;33;20253;-76
2021/12/14 18:22:33;;;;;;;53.45;23.08;;;;;;;6.48;88.90;101632.31;8569858;33;20637;-76
2021/12/14 18:27:42;;;;;;;55.67;22.40;;;;;;;6.36;89.05;101633.69;8567778;33;20201;-76
2021/12/14 18:32:47;;;;;;;54.80;23.65;;;;;;;6.45;89.01;101644.00;8543228;33;20429;-76
2021/12/14 18:37:53;;;;;;;50.03;23.25;;;;;;;6.52;88.61;101650.78;8562740;33;20187;-77
2021/12/14 18:42:57;;;;;;;57.55;24.60;;;;;;;6.52;88.84;101642.75;8564478;33;20152;-77
2021/12/14 18:53:25;;;;;;;52.58;23.63;;;;;;;6.56;88.30;101647.03;8537304;33;20250;-76
2021/12/14 18:58:38;;;;;;;50.35;22.15;;;;;;;6.52;88.24;101649.91;8538655;33;20493;-76
2021/12/14 19:03:44;;;;;;;48.67;21.52;;;;;;;6.51;88.31;101656.19;8562409;33;20179;-77
2021/12/14 19:08:54;;;;;;;55.47;23.45;;;;;;;6.56;88.14;101651.53;8557962;33;20152;-76
2021/12/14 19:14:08;;;;;;;56.47;24.15;;;;;;;6.57;87.85;101656.78;8524398;33;20461;-76
2021/12/14 19:19:18;;;;;;;60.42;25.40;;;;;;;6.48;88.71;101664.34;8545282;33;20191;-77
2021/12/14 19:24:23;;;;;;;54.30;22.58;;;;;;;6.40;88.91;101662.00;8547567;33;21082;-76
2021/12/14 19:29:35;;;;;;;58.50;24.10;;;;;;;6.49;89.49;101656.25;8546017;33;20424;-78
2021/12/14 19:34:43;;;;;;;52.95;23.45;;;;;;;6.36;89.91;101657.72;8545647;33;20136;-76
2021/12/14 19:39:50;;;;;;;50.90;22.42;;;;;;;6.39;89.81;101666.47;8521841;33;20485;-76
2021/12/14 19:44:58;;;;;;;44.70;18.88;;;;;;;6.32;89.78;101675.66;8511297;33;20626;-77
2021/12/14 19:50:13;;;;;;;42.45;18.88;;;;;;;6.44;89.57;101668.94;8517821;33;21308;-77
2021/12/14 19:55:21;;;;;;;39.67;18.13;;;;;;;6.38;90.44;101667.38;8492253;33;20250;-76
2021/12/14 20:00:31;;;;;;;35.50;18.97;;;;;;;6.53;89.89;101670.34;8483787;33;20435;-76
2021/12/14 20:05:38;;;;;;;36.70;18.17;;;;;;;6.42;90.25;101667.25;8499648;33;20411;-76
2021/12/14 20:10:51;;;;;;;41.80;20.08;;;;;;;6.32;90.97;101677.47;8488650;33;20157;-78
2021/12/14 20:16:00;;;;;;;38.50;18.23;;;;;;;6.51;90.00;101681.09;8487572;33;20280;-77
2021/12/14 20:21:10;;;;;;;40.25;18.60;;;;;;;6.47;90.39;101683.94;8512820;33;20537;-76
2021/12/14 20:26:23;;;;;;;39.13;19.33;;;;;;;6.42;90.10;101689.50;8549587;33;20420;-76
2021/12/14 20:31:34;;;;;;;40.75;18.98;;;;;;;6.60;89.66;101695.84;8553303;33;20167;-76
2021/12/14 20:36:55;;;;;;;35.88;14.90;;;;;;;6.38;90.15;101690.56;8531265;33;20564;-78
2021/12/14 20:42:13;;;;;;;35.35;18.58;;;;;;;6.67;89.72;101694.63;8542708;33;20386;-76
2021/12/14 20:47:19;;;;;;;40.85;18.42;;;;;;;6.59;90.08;101691.44;8544934;33;20787;-76
2021/12/14 20:52:26;;;;;;;38.15;18.27;;;;;;;6.61;89.75;101690.44;8545616;33;21530;-76
2021/12/14 20:57:46;;;;;;;38.20;19.17;;;;;;;6.60;89.72;101695.84;8554830;33;20212;-76
2021/12/14 21:02:53;;;;;;;37.20;17.42;;;;;;;6.63;89.48;101704.56;8532923;33;20498;-75
2021/12/14 21:08:06;;;;;;;44.15;19.73;;;;;;;6.81;89.14;101708.25;8545865;33;20136;-76
2021/12/14 21:13:10;;;;;;;46.47;19.67;;;;;;;6.64;89.68;101708.13;8525936;33;20619;-75
2021/12/14 21:18:15;;;;;;;42.75;20.35;;;;;;;6.61;89.69;101711.81;8543751;33;20738;-75
2021/12/14 21:23:25;;;;;;;42.97;19.58;;;;;;;6.83;88.89;101702.84;8543310;33;20244;-75
2021/12/14 21:28:32;;;;;;;39.85;19.17;;;;;;;6.87;88.33;101712.47;8545259;33;20464;-76
2021/12/14 21:33:45;;;;;;;41.30;17.98;;;;;;;6.76;88.98;101710.25;8548647;33;20404;-75
2021/12/14 21:38:53;;;;;;;34.55;16.95;;;;;;;6.76;89.17;101712.06;8470601;33;20411;-76
2021/12/14 21:44:06;;;;;;;33.00;17.25;;;;;;;6.80;89.03;101700.28;8506805;33;20437;-76
2021/12/14 21:49:16;;;;;;;35.28;16.45;;;;;;;6.87;88.94;101703.56;8529896;33;20290;-75
2021/12/14 21:54:20;;;;;;;37.85;15.68;;;;;;;6.81;88.83;101705.56;8562404;33;20552;-76
2021/12/14 21:59:23;;;;;;;31.50;14.70;;;;;;;6.82;88.60;101712.63;8564179;33;20136;-77
2021/12/14 22:04:28;;;;;;;32.53;15.73;;;;;;;6.84;88.95;101710.78;8541571;33;20694;-76
2021/12/14 22:09:31;;;;;;;33.70;16.02;;;;;;;6.83;88.99;101709.06;8568431;33;20498;-77
2021/12/14 22:14:35;;;;;;;38.17;18.00;;;;;;;6.65;90.26;101717.00;8570079;33;21818;-77
2021/12/14 22:19:44;;;;;;;44.13;18.38;;;;;;;6.67;90.08;101720.47;8545741;33;22105;-78
2021/12/14 22:24:48;;;;;;;44.45;18.92;;;;;;;6.63;90.46;101719.72;8538216;33;20243;-77
2021/12/14 22:29:52;;;;;;;42.53;17.73;;;;;;;6.68;90.39;101722.22;8504885;33;20512;-78
2021/12/14 22:34:56;;;;;;;46.22;20.13;;;;;;;6.57;91.20;101728.00;8505998;33;20725;-76
2021/12/14 22:40:04;;;;;;;51.22;21.08;;;;;;;6.50;92.01;101731.88;8504281;33;20422;-76
2021/12/14 22:45:07;;;;;;;53.13;20.27;;;;;;;6.49;92.11;101725.66;8494193;33;20918;-76
2021/12/14 22:50:13;;;;;;;50.75;21.48;;;;;;;6.68;91.32;101730.22;8503041;33;20919;-77
2021/12/14 22:55:20;;;;;;;54.65;23.08;;;;;;;6.72;90.89;101732.69;8467902;33;21001;-77
2021/12/14 23:00:36;;;;;;;52.95;23.20;;;;;;;6.82;90.34;101741.16;8466654;33;20489;-76
2021/12/14 23:05:41;;;;;;;50.97;24.23;;;;;;;6.70;91.29;101728.34;8489602;33;20305;-76
2021/12/14 23:10:49;;;;;;;47.10;20.10;;;;;;;6.35;92.27;101734.25;8544926;33;20896;-77
2021/12/14 23:15:55;;;;;;;51.22;21.85;;;;;;;6.69;91.50;101731.94;8547457;33;20642;-75
2021/12/14 23:21:02;;;;;;;43.17;20.15;;;;;;;6.82;90.85;101731.34;8563736;33;20897;-78
2021/12/14 23:26:08;;;;;;;46.33;19.63;;;;;;;6.70;90.78;101723.88;8560128;33;20187;-78
2021/12/14 23:31:12;;;;;;;48.53;21.35;;;;;;;6.85;90.51;101733.88;8561653;33;20995;-78
2021/12/14 23:36:22;;;;;;;39.45;19.90;;;;;;;6.78;90.77;101740.44;8546764;33;20432;-76
2021/12/14 23:41:25;;;;;;;34.90;15.27;;;;;;;6.68;91.04;101731.09;8521480;33;20144;-77
2021/12/14 23:51:47;;;;;;;41.22;18.70;;;;;;;6.76;91.17;101723.59;8499962;33;20144;-77
2021/12/14 23:56:53;;;;;;;36.35;17.17;;;;;;;6.68;91.41;101723.06;8520878;33;20431;-77
